F/V Mailys Charlie — FMIW — position and weather

sailwx.info

Track history (hours):
 
Tides and Currents Weather Stations Pressure Air Temp Water Temp Dewpoint Dewpoint Depression Visibility Wind Speed Wind Dir Waves Ship Positions

F/V Mailys Charlie

Last reported at 2014-Jul-27 02:30 UTC. Time now 2014-Jul-30 07:00 UTC.
Position N 48°02' W 005°07'.

Length 19 m.

Type: Fishing. MMSI: 228240800.

Date/timePositionNaut miles runAvg speedWind from/ knotsBaromVisibWave heightAir tempDewpointWater temp
2014-Jul-27 02:30N 48°02' W 005°07'910.0
2014-Jul-27 01:33N 47°57' W 004°54'10 9.6
2014-Jul-27 00:33N 47°52' W 004°42'9 9.3
2014-Jul-26 23:33N 47°48' W 004°29'10 9.2
2014-Jul-26 22:27N 47°45' W 004°15'21 1.3
2014-Jul-26 05:31N 47°52' W 004°45'1110.4
2014-Jul-26 04:29N 47°55' W 005°01'29 9.9
2014-Jul-26 01:33N 48°05' W 005°41'10 9.5
2014-Jul-26 00:33N 48°08' W 005°55'9 8.9
2014-Jul-25 23:33N 48°12' W 006°07'19 8.9
2014-Jul-25 21:28N 48°18' W 006°34'17 9.1
2014-Jul-25 19:33N 48°23' W 006°59'10 9.7
2014-Jul-25 18:33N 48°27' W 007°12'20 9.9
2014-Jul-25 16:33N 48°34' W 007°40'10 9.9
2014-Jul-25 15:33N 48°37' W 007°54'  
Track history (hours):
 
Tides and Currents Weather Stations Pressure Air Temp Water Temp Dewpoint Dewpoint Depression Visibility Wind Speed Wind Dir Waves Ship Positions

F/V Mailys Charlie

Last reported at 2014-Jul-27 02:30 UTC. Time now 2014-Jul-30 07:00 UTC.
Position N 48°02' W 005°07'.

Length 19 m.

Type: Fishing. MMSI: 228240800.

Date/timePositionNaut miles runAvg speedWind from/ knotsBaromVisibWave heightAir tempDewpointWater temp
2014-Jul-27 02:30N 48°02' W 005°07'910.0
2014-Jul-27 01:33N 47°57' W 004°54'10 9.6
2014-Jul-27 00:33N 47°52' W 004°42'9 9.3
2014-Jul-26 23:33N 47°48' W 004°29'10 9.2
2014-Jul-26 22:27N 47°45' W 004°15'21 1.3
2014-Jul-26 05:31N 47°52' W 004°45'1110.4
2014-Jul-26 04:29N 47°55' W 005°01'29 9.9
2014-Jul-26 01:33N 48°05' W 005°41'10 9.5
2014-Jul-26 00:33N 48°08' W 005°55'9 8.9
2014-Jul-25 23:33N 48°12' W 006°07'19 8.9
2014-Jul-25 21:28N 48°18' W 006°34'17 9.1
2014-Jul-25 19:33N 48°23' W 006°59'10 9.7
2014-Jul-25 18:33N 48°27' W 007°12'20 9.9
2014-Jul-25 16:33N 48°34' W 007°40'10 9.9
2014-Jul-25 15:33N 48°37' W 007°54'  

Dump ship's entire track history